CBK5 weather

Port Alberni (West Coast General Hospital) Heliport
Port Alberni, British Columbia, Canada

Public forecast

Using degrees Celsius for public forecast. Weather courtesy of forecast.io.

METAR (pilot weather report)

Closest report is Comox Airport, 28.0 nm (51.9 km) N. Retrieved 2019/09/24 08:00 UTC (16 minutes ago):

CYQQ 240800Z 15011KT 7SM -DZ OVC005 13/12 A3011 RMK SF8 CIG VRB 3-7 SLP197

TAF (pilot weather forecast)

Closest forecast is Comox Airport, 28.0 nm (51.9 km) N. Retrieved 2019/09/24 06:42 UTC (2 hours ago):

TAF TAF CYQQ 240539Z 2406/2506 16012KT 6SM BR SCT006 OVC012 TEMPO 2406/2412 4SM -DZ BR OVC006 BECMG 2410/2412 24005KT FM241200 30005KT P6SM FEW006 SCT012 BKN025 TEMPO 2412/2414 BKN012 FM241400 VRB03KT P6SM FEW015 SCT030 FM242100 07005KT P6SM FEW025 BKN050 BECMG 2501/2503 33010KT RMK NXT FCST BY 241200Z